MUHA/HAV METAR and TAF weather

Enter ICAO airport designator
Station Type Date Time Source
MUHA METAR 2023/01/30 10:50 UTC NOAA

MUHA 301050Z 09005KT 9000 SKC 18/16 Q1019


Station Type Date Time Source
MUHA Decoded METAR 2023/01/30 10:50 UTC NOAA

Aeropuerto Jose Marti, Rancho-Boyeros, Habana, Cuba (MUHA) 22-59N 082-24W 75M
Jan 30, 2023 - 05:50 AM EST / 2023.01.30 1050 UTC
Wind: from the E (090 degrees) at 6 MPH (5 KT):0
Visibility: 5 mile(s):0
Sky conditions: clear
Temperature: 64 F (18 C)
Dew Point: 60 F (16 C)
Relative Humidity: 88%
Pressure (altimeter): 30.09 in. Hg (1019 hPa)
ob: MUHA 301050Z 09005KT 9000 SKC 18/16 Q1019
cycle: 11

Station Type Date Time Source
MUHA TAF 2023/01/30 12:03 UTC NOAA

TAF MUHA 301100Z 3012/3112 09006KT 9000 FEW030
BECMG 3014/3016 09010KT SCT030
BECMG 3102/3104 VRB03KT FEW030

Example: see airport list